createdAt,value
2022-12-23T00:00:57.175Z,99177.84
2022-12-23T00:03:25.237Z,99183.91
2022-12-23T00:05:52.424Z,99169.50
2022-12-23T00:08:19.852Z,99180.28
2022-12-23T00:10:48.259Z,99193.25
2022-12-23T00:13:34.165Z,99187.78
2022-12-23T00:16:12.085Z,99184.53
2022-12-23T00:18:40.220Z,99188.38
2022-12-23T00:21:10.951Z,99188.44
2022-12-23T00:23:39.942Z,99185.91
2022-12-23T00:26:07.795Z,99185.28
2022-12-23T00:28:34.631Z,99170.78
2022-12-23T00:31:04.692Z,99180.16
2022-12-23T00:33:36.531Z,99175.19
2022-12-23T00:36:14.683Z,99178.75
2022-12-23T00:39:00.044Z,99181.88
2022-12-23T00:41:45.770Z,99180.66
2022-12-23T00:44:12.704Z,99183.13
2022-12-23T00:46:39.539Z,99190.84
2022-12-23T00:49:24.788Z,99185.81
2022-12-23T00:51:51.622Z,99186.28
2022-12-23T00:54:18.771Z,99184.72
2022-12-23T00:56:45.599Z,99181.94
2022-12-23T00:59:12.342Z,99185.50
2022-12-23T01:01:57.716Z,99192.44
2022-12-23T01:04:43.507Z,99187.69
2022-12-23T01:07:10.804Z,99191.03
2022-12-23T01:09:37.507Z,99191.03
2022-12-23T01:12:04.614Z,99196.13
2022-12-23T01:14:31.571Z,99196.38
2022-12-23T01:16:58.428Z,99200.97
2022-12-23T01:19:25.217Z,99202.31
2022-12-23T01:21:51.973Z,99208.34
2022-12-23T01:24:18.846Z,99205.63
2022-12-23T01:26:45.640Z,99214.19
2022-12-23T01:29:12.454Z,99204.22
2022-12-23T01:31:39.386Z,99204.59
2022-12-23T01:34:06.238Z,99202.91
2022-12-23T01:36:33.052Z,99207.91
2022-12-23T01:38:59.797Z,99209.38
2022-12-23T01:41:47.784Z,99210.59
2022-12-23T01:45:11.843Z,99205.97
2022-12-23T01:47:57.102Z,99202.16
2022-12-23T01:50:28.321Z,99203.38
2022-12-23T01:53:08.976Z,99215.31
2022-12-23T01:55:49.032Z,99216.69
2022-12-23T01:58:19.576Z,99221.66
2022-12-23T02:01:05.285Z,99210.00
2022-12-23T02:03:45.241Z,99210.88
2022-12-23T02:06:39.276Z,99220.41
2022-12-23T02:09:17.549Z,99219.59
2022-12-23T02:12:15.729Z,99215.53
2022-12-23T02:15:13.438Z,99217.16
2022-12-23T02:17:43.036Z,99219.00
2022-12-23T02:20:46.585Z,99226.16
2022-12-23T02:23:31.590Z,99224.34
2022-12-23T02:26:28.717Z,99226.56
2022-12-23T02:29:16.863Z,99228.81
2022-12-23T02:31:59.793Z,99229.63
2022-12-23T02:34:32.916Z,99221.28
2022-12-23T02:37:07.161Z,99229.22
2022-12-23T02:39:57.490Z,99230.06
2022-12-23T02:42:29.961Z,99223.34
2022-12-23T02:45:07.121Z,99230.88
2022-12-23T02:47:38.149Z,99223.34
2022-12-23T02:50:07.156Z,99224.38
2022-12-23T02:52:34.865Z,99219.28
2022-12-23T02:55:14.829Z,99232.34
2022-12-23T02:57:45.920Z,99230.50
2022-12-23T03:00:13.451Z,99233.56
2022-12-23T03:02:41.739Z,99237.66
2022-12-23T03:05:30.100Z,99239.25
2022-12-23T03:07:59.699Z,99238.69
2022-12-23T03:10:48.651Z,99244.59
2022-12-23T03:13:34.608Z,99247.03
2022-12-23T03:16:22.941Z,99249.88
2022-12-23T03:18:57.189Z,99249.31
2022-12-23T03:21:34.765Z,99261.34
2022-12-23T03:24:24.925Z,99263.41
2022-12-23T03:27:00.336Z,99256.03
2022-12-23T03:29:35.550Z,99258.69
2022-12-23T03:32:03.149Z,99256.63
2022-12-23T03:34:34.265Z,99263.81
2022-12-23T03:37:04.771Z,99254.81
2022-12-23T03:39:36.943Z,99249.09
2022-12-23T03:42:13.632Z,99254.63
2022-12-23T03:45:03.750Z,99257.66
2022-12-23T03:47:33.700Z,99251.75
2022-12-23T03:50:07.265Z,99251.56
2022-12-23T03:52:39.616Z,99253.00
2022-12-23T03:55:08.735Z,99245.22
2022-12-23T03:57:40.783Z,99250.94
2022-12-23T04:00:08.323Z,99249.09
2022-12-23T04:02:50.521Z,99242.16
2022-12-23T04:05:30.237Z,99247.03
2022-12-23T04:08:32.695Z,99246.22
2022-12-23T04:10:59.763Z,99251.97
2022-12-23T04:13:27.717Z,99241.13
2022-12-23T04:15:54.835Z,99248.47
2022-12-23T04:18:24.026Z,99248.84
2022-12-23T04:20:50.873Z,99252.75
2022-12-23T04:23:17.765Z,99254.16
2022-12-23T04:25:44.684Z,99253.97
2022-12-23T04:28:11.398Z,99239.19
2022-12-23T04:30:38.263Z,99243.47
2022-12-23T04:33:04.982Z,99247.75
2022-12-23T04:35:31.885Z,99236.06
2022-12-23T04:37:58.859Z,99227.72
2022-12-23T04:40:25.693Z,99224.63
2022-12-23T04:42:52.593Z,99233.88
2022-12-23T04:45:19.527Z,99225.47
2022-12-23T04:47:46.316Z,99227.53
2022-12-23T04:50:16.964Z,99231.22
2022-12-23T04:52:44.490Z,99225.31
2022-12-23T04:55:11.764Z,99214.69
2022-12-23T04:57:41.011Z,99214.47
2022-12-23T05:00:08.528Z,99223.47
2022-12-23T05:02:35.405Z,99214.50
2022-12-23T05:05:02.244Z,99223.06
2022-12-23T05:07:29.033Z,99214.53
2022-12-23T05:09:57.581Z,99220.19
2022-12-23T05:12:24.324Z,99215.69
2022-12-23T05:14:51.088Z,99219.81
2022-12-23T05:17:17.790Z,99225.53
2022-12-23T05:19:44.679Z,99232.13
2022-12-23T05:22:11.518Z,99226.59
2022-12-23T05:24:38.275Z,99233.50
2022-12-23T05:27:05.136Z,99232.47
2022-12-23T05:29:32.056Z,99237.34
2022-12-23T05:31:58.962Z,99242.91
2022-12-23T05:34:25.968Z,99240.69
2022-12-23T05:36:52.787Z,99251.91
2022-12-23T05:39:19.640Z,99256.81
2022-12-23T05:41:46.414Z,99256.81
2022-12-23T05:44:13.206Z,99251.47
2022-12-23T05:46:40.074Z,99249.19
2022-12-23T05:49:06.952Z,99254.94
2022-12-23T05:51:33.762Z,99253.09
2022-12-23T05:54:00.621Z,99254.13
2022-12-23T05:56:27.484Z,99254.94
2022-12-23T05:58:54.423Z,99250.44
2022-12-23T06:01:21.116Z,99244.47
2022-12-23T06:03:48.054Z,99245.31
2022-12-23T06:06:15.156Z,99247.13
2022-12-23T06:08:41.994Z,99234.50
2022-12-23T06:11:09.026Z,99235.47
2022-12-23T06:13:35.847Z,99238.56
2022-12-23T06:16:02.926Z,99232.00
2022-12-23T06:18:31.613Z,99238.75
2022-12-23T06:20:58.425Z,99236.91
2022-12-23T06:23:25.264Z,99242.84
2022-12-23T06:25:59.021Z,99240.56
2022-12-23T06:28:25.941Z,99240.38
2022-12-23T06:30:54.137Z,99240.75
2022-12-23T06:33:20.937Z,99241.81
2022-12-23T06:35:47.805Z,99248.91
2022-12-23T06:38:14.589Z,99249.59
2022-12-23T06:40:41.844Z,99248.56
2022-12-23T06:43:10.668Z,99242.00
2022-12-23T06:45:37.428Z,99236.47
2022-12-23T06:48:04.630Z,99249.13
2022-12-23T06:50:31.365Z,99247.06
2022-12-23T06:52:58.137Z,99253.44
2022-12-23T06:55:24.964Z,99240.81
2022-12-23T06:57:51.751Z,99233.41
2022-12-23T07:00:18.632Z,99234.03
2022-12-23T07:02:45.584Z,99232.13
2022-12-23T07:05:12.521Z,99230.78
2022-12-23T07:07:39.434Z,99226.72
2022-12-23T07:10:07.014Z,99219.53
2022-12-23T07:12:34.161Z,99214.19
2022-12-23T07:15:00.917Z,99217.94
2022-12-23T07:17:28.459Z,99217.28
2022-12-23T07:19:55.233Z,99217.53
2022-12-23T07:22:22.080Z,99213.44
2022-12-23T07:24:48.933Z,99219.22
2022-12-23T07:27:16.235Z,99211.84
2022-12-23T07:29:42.953Z,99207.78
2022-12-23T07:32:09.873Z,99211.63
2022-12-23T07:34:36.774Z,99208.41
2022-12-23T07:37:03.675Z,99211.03
2022-12-23T07:39:30.610Z,99206.34
2022-12-23T07:42:24.936Z,99205.56
2022-12-23T07:44:44.475Z,99207.16
2022-12-23T07:47:11.228Z,99201.56
2022-12-23T07:49:38.096Z,99203.25
2022-12-23T07:52:04.981Z,99203.50
2022-12-23T07:54:31.880Z,99209.00
2022-12-23T07:56:58.793Z,99210.66
2022-12-23T07:59:27.164Z,99210.22
2022-12-23T08:01:54.141Z,99210.03
2022-12-23T08:04:21.174Z,99213.84
2022-12-23T08:06:48.059Z,99200.25
2022-12-23T08:09:14.938Z,99203.28
2022-12-23T08:11:41.682Z,99205.50
2022-12-23T08:14:08.538Z,99208.59
2022-12-23T08:16:41.384Z,99204.91
2022-12-23T08:19:10.602Z,99197.69
2022-12-23T08:21:37.432Z,99193.84
2022-12-23T08:24:04.376Z,99198.97
2022-12-23T08:26:33.791Z,99195.13
2022-12-23T08:29:01.050Z,99192.28
2022-12-23T08:31:31.990Z,99202.91
2022-12-23T08:34:00.148Z,99202.09
2022-12-23T08:36:29.951Z,99194.94
2022-12-23T08:38:58.561Z,99199.25
2022-12-23T08:41:27.996Z,99199.88
2022-12-23T08:43:55.233Z,99195.19
2022-12-23T08:46:22.446Z,99201.72
2022-12-23T08:48:50.182Z,99203.34
2022-12-23T08:51:18.818Z,99197.63
2022-12-23T08:53:45.996Z,99195.78
2022-12-23T08:56:15.313Z,99194.59
2022-12-23T08:58:46.419Z,99199.66
2022-12-23T09:01:15.866Z,99192.72
2022-12-23T09:03:43.820Z,99197.81
2022-12-23T09:06:16.507Z,99196.00
2022-12-23T09:08:44.054Z,99202.94
2022-12-23T09:11:12.126Z,99200.69
2022-12-23T09:13:39.115Z,99208.03
2022-12-23T09:16:06.613Z,99205.59
2022-12-23T09:18:34.454Z,99214.34
2022-12-23T09:21:03.244Z,99209.88
2022-12-23T09:23:30.236Z,99200.66
2022-12-23T09:25:57.473Z,99200.25
2022-12-23T09:28:25.318Z,99192.28
2022-12-23T09:30:52.823Z,99195.09
2022-12-23T09:33:20.015Z,99197.56
2022-12-23T09:35:46.936Z,99190.19
2022-12-23T09:38:13.941Z,99201.03
2022-12-23T09:40:42.325Z,99199.97
2022-12-23T09:43:33.945Z,99193.63
2022-12-23T09:46:24.690Z,99195.03
2022-12-23T09:49:09.287Z,99186.84
2022-12-23T09:51:36.087Z,99203.81
2022-12-23T09:54:17.108Z,99197.91
2022-12-23T09:56:58.335Z,99194.41
2022-12-23T09:59:35.854Z,99199.50
2022-12-23T10:02:24.313Z,99198.66
2022-12-23T10:05:05.827Z,99202.59
2022-12-23T10:07:52.654Z,99202.97
2022-12-23T10:10:42.745Z,99204.81
2022-12-23T10:13:20.072Z,99201.94
2022-12-23T10:15:48.689Z,99195.63
2022-12-23T10:18:21.911Z,99183.50
2022-12-23T10:21:14.711Z,99174.03
2022-12-23T10:23:43.756Z,99153.75
2022-12-23T10:26:32.375Z,99156.56
2022-12-23T10:29:19.435Z,99159.66
2022-12-23T10:32:11.522Z,99171.91
2022-12-23T10:34:57.112Z,99165.34
2022-12-23T10:37:38.882Z,99153.47
2022-12-23T10:40:21.818Z,99165.34
2022-12-23T10:43:03.990Z,99158.22
2022-12-23T10:45:37.296Z,99154.06
2022-12-23T10:48:26.230Z,99159.59
2022-12-23T10:51:03.534Z,99153.03
2022-12-23T10:53:42.268Z,99151.19
2022-12-23T10:56:09.293Z,99152.78
2022-12-23T10:58:40.697Z,99142.47
2022-12-23T11:01:16.142Z,99151.38
2022-12-23T11:03:51.748Z,99140.19
2022-12-23T11:06:19.784Z,99150.84
2022-12-23T11:08:47.127Z,99139.56
2022-12-23T11:11:14.862Z,99136.41
2022-12-23T11:13:44.310Z,99131.66
2022-12-23T11:16:31.449Z,99134.09
2022-12-23T11:19:04.216Z,99137.91
2022-12-23T11:21:32.609Z,99134.00
2022-12-23T11:24:20.051Z,99136.81
2022-12-23T11:26:49.857Z,99127.16
2022-12-23T11:29:25.695Z,99120.03
2022-12-23T11:31:52.786Z,99116.78
2022-12-23T11:34:22.188Z,99124.59
2022-12-23T11:36:56.602Z,99118.31
2022-12-23T11:39:33.927Z,99115.53
2022-12-23T11:42:17.865Z,99108.91
2022-12-23T11:44:47.781Z,99107.75
2022-12-23T11:47:48.195Z,99105.06
2022-12-23T11:50:36.632Z,99102.00
2022-12-23T11:53:21.615Z,99093.91
2022-12-23T11:56:09.878Z,99098.78
2022-12-23T11:58:45.913Z,99086.50
2022-12-23T12:01:18.764Z,99082.75
2022-12-23T12:03:49.769Z,99075.34
2022-12-23T12:06:17.206Z,99064.13
2022-12-23T12:08:44.077Z,99067.28
2022-12-23T12:11:17.797Z,99054.28
2022-12-23T12:14:01.018Z,99050.72
2022-12-23T12:16:30.674Z,99070.25
2022-12-23T12:19:26.807Z,99062.28
2022-12-23T12:21:57.550Z,99063.22
2022-12-23T12:24:29.520Z,99062.03
2022-12-23T12:27:01.419Z,99057.50
2022-12-23T12:29:43.875Z,99062.63
2022-12-23T12:32:49.719Z,99051.44
2022-12-23T12:35:35.978Z,99055.44
2022-12-23T12:38:13.909Z,99049.53
2022-12-23T12:40:42.856Z,99043.03
2022-12-23T12:43:31.777Z,99036.66
2022-12-23T12:46:40.127Z,99041.09
2022-12-23T12:49:24.957Z,99041.59
2022-12-23T12:52:08.268Z,99032.97
2022-12-23T12:55:17.986Z,99018.41
2022-12-23T12:57:44.777Z,99017.38
2022-12-23T13:00:23.103Z,99007.06
2022-12-23T13:03:23.336Z,99012.63
2022-12-23T13:06:00.610Z,99011.34
2022-12-23T13:08:51.924Z,99010.31
2022-12-23T13:11:45.476Z,99010.28
2022-12-23T13:14:27.669Z,99012.19
2022-12-23T13:17:12.822Z,99009.75
2022-12-23T13:19:51.012Z,99006.56
2022-12-23T13:22:28.037Z,98996.78
2022-12-23T13:25:06.311Z,99005.31
2022-12-23T13:27:43.866Z,98999.63
2022-12-23T13:30:20.240Z,98986.09
2022-12-23T13:32:55.996Z,98995.75
2022-12-23T13:36:13.672Z,98985.56
2022-12-23T13:38:49.277Z,98976.91
2022-12-23T13:41:34.953Z,98979.72
2022-12-23T13:44:06.462Z,98987.03
2022-12-23T13:47:11.758Z,98977.06
2022-12-23T13:49:41.740Z,98969.72
2022-12-23T13:52:28.692Z,98965.66
2022-12-23T13:55:32.731Z,98968.50
2022-12-23T13:58:13.887Z,98970.25
2022-12-23T14:00:40.786Z,98957.47
2022-12-23T14:03:14.694Z,98960.28
2022-12-23T14:05:50.705Z,98952.31
2022-12-23T14:08:27.788Z,98945.19
2022-12-23T14:11:02.002Z,98939.81
2022-12-23T14:13:56.157Z,98936.47
2022-12-23T14:16:56.523Z,98934.72
2022-12-23T14:19:38.697Z,98941.19
2022-12-23T14:22:41.644Z,98939.50
2022-12-23T14:25:17.443Z,98938.41
2022-12-23T14:27:44.281Z,98939.94
2022-12-23T14:30:45.910Z,98948.28
2022-12-23T14:33:18.787Z,98946.44
2022-12-23T14:35:45.491Z,98952.81
2022-12-23T14:38:15.260Z,98946.06
2022-12-23T14:40:42.357Z,98955.19
2022-12-23T14:43:55.704Z,98946.97
2022-12-23T14:46:45.909Z,98954.00
2022-12-23T14:49:40.613Z,98944.38
2022-12-23T14:52:40.763Z,98933.28
2022-12-23T14:55:31.600Z,98937.19
2022-12-23T14:58:17.516Z,98938.91
2022-12-23T15:00:53.172Z,98941.22
2022-12-23T15:03:20.583Z,98946.94
2022-12-23T15:05:47.774Z,98941.22
2022-12-23T15:08:36.035Z,98946.91
2022-12-23T15:11:03.477Z,98938.59
2022-12-23T15:13:31.853Z,98933.22
2022-12-23T15:16:01.817Z,98933.59
2022-12-23T15:18:29.348Z,98931.06
2022-12-23T15:21:05.101Z,98944.00
2022-12-23T15:23:33.345Z,98938.38
2022-12-23T15:26:00.606Z,98936.19
2022-12-23T15:28:38.471Z,98941.72
2022-12-23T15:31:06.239Z,98938.66
2022-12-23T15:34:03.052Z,98945.53
2022-12-23T15:36:30.885Z,98946.22
2022-12-23T15:38:59.418Z,98942.19
2022-12-23T15:41:26.378Z,98942.13
2022-12-23T15:43:56.646Z,98947.84
2022-12-23T15:46:29.871Z,98949.69
2022-12-23T15:48:57.242Z,98940.00
2022-12-23T15:51:57.814Z,98944.59
2022-12-23T15:54:51.849Z,98937.41
2022-12-23T15:57:20.985Z,98933.66
2022-12-23T15:59:48.146Z,98928.22
2022-12-23T16:02:58.910Z,98927.66
2022-12-23T16:05:09.377Z,98930.00
2022-12-23T16:07:40.795Z,98927.94
2022-12-23T16:10:15.724Z,98935.25
2022-12-23T16:12:43.882Z,98932.81
2022-12-23T16:15:27.291Z,98928.28
2022-12-23T16:18:14.319Z,98927.59
2022-12-23T16:20:44.618Z,98943.97
2022-12-23T16:23:12.459Z,98940.63
2022-12-23T16:25:39.705Z,98941.22
2022-12-23T16:28:09.180Z,98937.50
2022-12-23T16:30:38.195Z,98930.25
2022-12-23T16:33:37.808Z,98926.56
2022-12-23T16:36:26.865Z,98933.34
2022-12-23T16:39:19.629Z,98931.50
2022-12-23T16:41:46.423Z,98921.44
2022-12-23T16:44:13.292Z,98928.19
2022-12-23T16:46:44.129Z,98927.13
2022-12-23T16:49:15.933Z,98917.59
2022-12-23T16:51:43.072Z,98921.16
2022-12-23T16:54:15.636Z,98923.38
2022-12-23T16:56:43.148Z,98916.88
2022-12-23T16:59:10.292Z,98923.16
2022-12-23T17:01:39.615Z,98918.50
2022-12-23T17:04:07.345Z,98918.28
2022-12-23T17:06:35.919Z,98918.81
2022-12-23T17:09:04.413Z,98916.25
2022-12-23T17:11:48.986Z,98907.78
2022-12-23T17:14:25.440Z,98910.47
2022-12-23T17:16:52.602Z,98912.63
2022-12-23T17:19:28.817Z,98920.81
2022-12-23T17:22:00.548Z,98909.75
2022-12-23T17:24:27.327Z,98917.75
2022-12-23T17:26:54.898Z,98908.72
2022-12-23T17:29:21.704Z,98907.75
2022-12-23T17:31:49.025Z,98905.66
2022-12-23T17:34:18.988Z,98901.88
2022-12-23T17:36:49.792Z,98896.44
2022-12-23T17:39:17.401Z,98903.38
2022-12-23T17:41:44.258Z,98902.88
2022-12-23T17:44:14.001Z,98895.84
2022-12-23T17:46:40.790Z,98896.22
2022-12-23T17:49:08.685Z,98896.22
2022-12-23T17:51:35.573Z,98895.97
2022-12-23T17:54:04.506Z,98902.13
2022-12-23T17:56:31.490Z,98896.84
2022-12-23T17:58:58.554Z,98900.50
2022-12-23T18:01:26.495Z,98900.13
2022-12-23T18:03:54.190Z,98901.53
2022-12-23T18:06:22.459Z,98897.03
2022-12-23T18:08:49.767Z,98895.28
2022-12-23T18:11:38.835Z,98890.44
2022-12-23T18:14:05.642Z,98885.69
2022-12-23T18:16:32.468Z,98886.03
2022-12-23T18:18:59.391Z,98887.81
2022-12-23T18:21:28.075Z,98886.78
2022-12-23T18:23:57.254Z,98889.66
2022-12-23T18:26:24.990Z,98888.50
2022-12-23T18:28:54.154Z,98889.44
2022-12-23T18:31:24.139Z,98891.75
2022-12-23T18:33:51.762Z,98888.09
2022-12-23T18:36:24.949Z,98893.13
2022-12-23T18:38:52.671Z,98893.03
2022-12-23T18:41:20.516Z,98889.56
2022-12-23T18:43:47.418Z,98885.63
2022-12-23T18:46:14.320Z,98886.91
2022-12-23T18:48:41.216Z,98881.09
2022-12-23T18:51:12.501Z,98890.06
2022-12-23T18:53:39.610Z,98879.34
2022-12-23T18:56:06.581Z,98887.66
2022-12-23T18:58:33.394Z,98886.59
2022-12-23T19:01:00.208Z,98885.16
2022-12-23T19:03:29.817Z,98891.41
2022-12-23T19:05:58.226Z,98882.06
2022-12-23T19:08:27.550Z,98885.28
2022-12-23T19:10:55.285Z,98874.03
2022-12-23T19:13:22.547Z,98884.00
2022-12-23T19:15:49.485Z,98874.63
2022-12-23T19:18:18.394Z,98884.91
2022-12-23T19:20:45.982Z,98882.59
2022-12-23T19:23:13.421Z,98877.06
2022-12-23T19:25:42.048Z,98875.78
2022-12-23T19:28:09.673Z,98875.44
2022-12-23T19:30:37.059Z,98876.41
2022-12-23T19:33:03.976Z,98887.34
2022-12-23T19:35:30.759Z,98885.63
2022-12-23T19:37:57.555Z,98890.50
2022-12-23T19:40:24.347Z,98883.31
2022-12-23T19:42:51.223Z,98890.81
2022-12-23T19:45:18.067Z,98887.81
2022-12-23T19:47:44.894Z,98884.72
2022-12-23T19:50:11.991Z,98882.72
2022-12-23T19:52:39.001Z,98890.13
2022-12-23T19:55:06.452Z,98886.66
2022-12-23T19:57:33.565Z,98878.91
2022-12-23T20:00:01.904Z,98879.25
2022-12-23T20:02:38.794Z,98877.84
2022-12-23T20:05:06.077Z,98877.31
2022-12-23T20:07:32.873Z,98874.31
2022-12-23T20:09:59.681Z,98875.13
2022-12-23T20:12:28.015Z,98882.38
2022-12-23T20:14:54.885Z,98878.44
2022-12-23T20:17:21.652Z,98877.16
2022-12-23T20:19:48.500Z,98878.66
2022-12-23T20:22:15.254Z,98882.53
2022-12-23T20:24:42.039Z,98874.78
2022-12-23T20:27:11.990Z,98874.19
2022-12-23T20:29:39.477Z,98874.78
2022-12-23T20:32:06.218Z,98880.56
2022-12-23T20:34:38.624Z,98887.75
2022-12-23T20:37:06.477Z,98876.88
2022-12-23T20:39:33.348Z,98879.41
2022-12-23T20:42:00.135Z,98878.25
2022-12-23T20:44:36.053Z,98872.84
2022-12-23T20:47:05.173Z,98875.28
2022-12-23T20:49:32.055Z,98869.25
2022-12-23T20:51:58.897Z,98869.94
2022-12-23T20:54:32.209Z,98872.13
2022-12-23T20:56:59.241Z,98869.94
2022-12-23T20:59:26.036Z,98872.34
2022-12-23T21:01:52.924Z,98877.44
2022-12-23T21:04:20.597Z,98873.63
2022-12-23T21:06:47.655Z,98889.47
2022-12-23T21:09:15.422Z,98879.72
2022-12-23T21:11:44.074Z,98871.94
2022-12-23T21:14:11.702Z,98885.84
2022-12-23T21:16:39.050Z,98880.53
2022-12-23T21:19:07.680Z,98877.16
2022-12-23T21:21:34.774Z,98875.88
2022-12-23T21:24:04.581Z,98876.22
2022-12-23T21:26:32.969Z,98875.75
2022-12-23T21:29:00.623Z,98877.97
2022-12-23T21:31:28.893Z,98869.00
2022-12-23T21:33:55.907Z,98870.16
2022-12-23T21:36:25.510Z,98876.88
2022-12-23T21:38:52.484Z,98867.03
2022-12-23T21:41:27.647Z,98861.16
2022-12-23T21:43:56.200Z,98864.88
2022-12-23T21:46:23.701Z,98865.19
2022-12-23T21:48:51.087Z,98855.94
2022-12-23T21:51:19.016Z,98855.84
2022-12-23T21:53:46.926Z,98858.81
2022-12-23T21:56:16.450Z,98851.34
2022-12-23T21:58:43.685Z,98858.50
2022-12-23T22:01:14.021Z,98857.25
2022-12-23T22:03:41.455Z,98846.47
2022-12-23T22:06:10.960Z,98843.56
2022-12-23T22:08:39.071Z,98846.81
2022-12-23T22:11:08.508Z,98839.88
2022-12-23T22:13:36.190Z,98848.50
2022-12-23T22:16:04.412Z,98841.13
2022-12-23T22:18:31.803Z,98849.72
2022-12-23T22:20:58.663Z,98851.09
2022-12-23T22:23:25.461Z,98847.41
2022-12-23T22:25:55.969Z,98844.28
2022-12-23T22:28:22.871Z,98845.41
2022-12-23T22:30:49.697Z,98851.56
2022-12-23T22:33:16.555Z,98835.97
2022-12-23T22:35:43.349Z,98846.69
2022-12-23T22:38:10.396Z,98845.56
2022-12-23T22:40:37.169Z,98835.16
2022-12-23T22:43:04.034Z,98833.41
2022-12-23T22:45:30.874Z,98840.38
2022-12-23T22:47:57.743Z,98845.16
2022-12-23T22:50:24.502Z,98840.25
2022-12-23T22:52:51.557Z,98844.34
2022-12-23T22:55:18.481Z,98843.63
2022-12-23T22:57:45.289Z,98847.34
2022-12-23T23:00:12.954Z,98843.06
2022-12-23T23:02:39.804Z,98847.91
2022-12-23T23:05:12.582Z,98840.63
2022-12-23T23:07:40.013Z,98839.34
2022-12-23T23:10:07.517Z,98831.25
2022-12-23T23:12:34.300Z,98848.81
2022-12-23T23:15:01.909Z,98835.50
2022-12-23T23:17:29.076Z,98835.00
2022-12-23T23:19:55.958Z,98840.47
2022-12-23T23:22:24.033Z,98835.00
2022-12-23T23:24:51.491Z,98835.34
2022-12-23T23:27:18.810Z,98835.44
2022-12-23T23:29:45.659Z,98848.16
2022-12-23T23:32:12.574Z,98841.22
2022-12-23T23:34:40.629Z,98847.59
2022-12-23T23:37:07.715Z,98843.81
2022-12-23T23:39:34.451Z,98850.97
2022-12-23T23:42:01.262Z,98847.47
2022-12-23T23:44:28.049Z,98839.13
2022-12-23T23:46:54.882Z,98849.56
2022-12-23T23:49:23.215Z,98849.44
2022-12-23T23:51:50.550Z,98847.59
2022-12-23T23:54:17.655Z,98839.59
2022-12-23T23:56:44.462Z,98840.50
2022-12-23T23:59:11.292Z,98839.31
